createdAt,value
2022-09-10T00:02:45.246Z,0.40
2022-09-10T00:06:47.248Z,0.40
2022-09-10T00:10:52.042Z,0.50
2022-09-10T00:14:54.353Z,0.52
2022-09-10T00:19:01.021Z,0.60
2022-09-10T00:23:03.194Z,0.68
2022-09-10T00:27:05.207Z,0.47
2022-09-10T00:31:07.410Z,0.38
2022-09-10T00:35:09.423Z,0.70
2022-09-10T00:39:17.599Z,0.73
2022-09-10T00:43:21.757Z,0.80
2022-09-10T00:47:29.035Z,1.00
2022-09-10T00:55:38.301Z,1.70
2022-09-10T00:59:43.498Z,1.70
2022-09-10T01:03:46.502Z,1.80
2022-09-10T01:07:49.032Z,1.27
2022-09-10T01:12:26.491Z,1.50
2022-09-10T01:16:36.843Z,1.10
2022-09-10T01:21:03.988Z,1.20
2022-09-10T01:25:31.285Z,1.20
2022-09-10T01:29:39.076Z,1.10
2022-09-10T01:33:49.091Z,1.20
2022-09-10T01:37:55.266Z,1.70
2022-09-10T01:41:58.842Z,1.63
2022-09-10T01:46:44.723Z,2.10
2022-09-10T01:51:16.553Z,2.58
2022-09-10T01:55:51.009Z,3.03
2022-09-10T02:00:14.583Z,3.85
2022-09-10T02:04:19.629Z,4.38
2022-09-10T02:08:30.005Z,3.53
2022-09-10T02:12:33.197Z,3.42
2022-09-10T02:17:05.572Z,3.38
2022-09-10T02:21:10.195Z,2.67
2022-09-10T02:25:12.380Z,2.58
2022-09-10T02:29:16.920Z,2.97
2022-09-10T02:33:20.077Z,3.78
2022-09-10T02:37:24.246Z,4.00
2022-09-10T02:41:26.572Z,4.90
2022-09-10T02:45:30.056Z,4.60
2022-09-10T02:49:34.658Z,4.93
2022-09-10T02:53:37.329Z,4.90
2022-09-10T02:57:40.390Z,4.57
2022-09-10T03:01:42.546Z,4.47
2022-09-10T03:05:44.915Z,4.40
2022-09-10T03:09:47.380Z,4.30
2022-09-10T03:13:50.806Z,4.50
2022-09-10T03:17:53.031Z,4.47
2022-09-10T03:21:55.225Z,4.57
2022-09-10T03:25:57.330Z,4.00
2022-09-10T03:30:01.293Z,4.97
2022-09-10T03:34:06.642Z,4.72
2022-09-10T03:38:08.625Z,5.82
2022-09-10T03:42:11.062Z,6.28
2022-09-10T03:46:13.124Z,5.82
2022-09-10T03:50:18.401Z,5.95
2022-09-10T03:54:20.726Z,5.50
2022-09-10T03:58:23.286Z,5.15
2022-09-10T04:02:26.878Z,5.40
2022-09-10T04:06:28.994Z,4.93
2022-09-10T04:10:31.157Z,5.30
2022-09-10T04:14:34.363Z,3.67
2022-09-10T04:18:37.887Z,4.05
2022-09-10T04:22:39.990Z,3.53
2022-09-10T04:26:42.117Z,3.67
2022-09-10T04:30:47.011Z,3.20
2022-09-10T04:34:49.593Z,3.33
2022-09-10T04:38:53.077Z,2.92
2022-09-10T04:42:55.183Z,3.25
2022-09-10T04:46:57.300Z,2.92
2022-09-10T04:51:15.856Z,3.08
2022-09-10T04:55:20.634Z,3.13
2022-09-10T04:59:22.993Z,2.80
2022-09-10T05:03:25.120Z,2.95
2022-09-10T05:07:28.413Z,3.08
2022-09-10T05:11:31.386Z,3.15
2022-09-10T05:15:35.057Z,2.60
2022-09-10T05:19:39.453Z,2.55
2022-09-10T05:23:44.225Z,2.63
2022-09-10T05:27:46.534Z,2.60
2022-09-10T05:31:53.294Z,2.17
2022-09-10T05:35:55.528Z,2.00
2022-09-10T05:39:57.784Z,1.80
2022-09-10T05:44:00.436Z,1.80
2022-09-10T05:48:04.037Z,1.80
2022-09-10T05:52:06.270Z,1.63
2022-09-10T05:56:09.227Z,1.60
2022-09-10T06:00:12.612Z,1.83
2022-09-10T06:04:24.195Z,2.10
2022-09-10T06:08:26.420Z,2.30
2022-09-10T06:12:29.602Z,2.22
2022-09-10T06:16:32.673Z,2.00
2022-09-10T06:20:36.974Z,1.80
2022-09-10T06:24:40.898Z,1.48
2022-09-10T06:28:43.385Z,1.02
2022-09-10T06:32:46.405Z,0.90
2022-09-10T06:36:49.374Z,0.85
2022-09-10T06:40:56.598Z,0.60
2022-09-10T06:45:00.062Z,0.50
2022-09-10T06:49:31.116Z,0.50
2022-09-10T06:53:33.646Z,0.50
2022-09-10T06:57:36.986Z,0.40
2022-09-10T07:01:39.325Z,0.30
2022-09-10T07:05:42.486Z,0.20
2022-09-10T07:09:44.581Z,0.30
2022-09-10T07:13:52.157Z,0.30
2022-09-10T07:17:56.457Z,0.50
2022-09-10T07:21:58.726Z,0.50
2022-09-10T07:26:06.315Z,0.60
2022-09-10T07:30:14.195Z,0.63
2022-09-10T07:34:16.368Z,0.50
2022-09-10T07:38:20.525Z,0.60
2022-09-10T07:42:25.251Z,0.93
2022-09-10T07:46:28.336Z,0.68
2022-09-10T07:50:31.552Z,0.60
2022-09-10T07:54:34.873Z,0.65
2022-09-10T07:58:38.309Z,0.50
2022-09-10T08:02:46.833Z,0.30
2022-09-10T08:06:53.293Z,0.30
2022-09-10T08:10:55.669Z,0.32
2022-09-10T08:14:58.786Z,0.32
2022-09-10T08:19:02.687Z,0.47
2022-09-10T08:23:07.827Z,0.40
2022-09-10T08:27:11.615Z,0.52
2022-09-10T08:31:13.941Z,0.60
2022-09-10T08:35:24.078Z,0.50
2022-09-10T08:39:26.505Z,0.60
2022-09-10T08:43:38.137Z,0.52
2022-09-10T08:48:18.939Z,0.70
2022-09-10T08:52:40.560Z,0.85
2022-09-10T08:56:49.393Z,0.87
2022-09-10T09:00:57.680Z,0.75
2022-09-10T09:05:21.098Z,0.93
2022-09-10T09:09:25.898Z,0.65
2022-09-10T09:13:44.242Z,0.60
2022-09-10T09:18:10.876Z,0.75
2022-09-10T09:22:29.201Z,0.80
2022-09-10T09:26:35.995Z,0.88
2022-09-10T09:30:49.345Z,0.70
2022-09-10T09:34:56.921Z,0.50
2022-09-10T09:38:59.496Z,0.80
2022-09-10T09:43:13.213Z,0.80
2022-09-10T09:47:15.495Z,0.63
2022-09-10T09:51:21.201Z,0.60
2022-09-10T09:55:40.181Z,0.45
2022-09-10T09:59:42.234Z,0.50
2022-09-10T10:03:55.004Z,0.63
2022-09-10T10:07:57.288Z,0.50
2022-09-10T10:12:04.588Z,0.80
2022-09-10T10:16:24.050Z,0.50
2022-09-10T10:20:38.807Z,0.50
2022-09-10T10:24:42.473Z,0.73
2022-09-10T10:29:06.515Z,0.68
2022-09-10T10:33:18.117Z,0.50
2022-09-10T10:37:42.944Z,0.40
2022-09-10T10:41:58.664Z,0.50
2022-09-10T10:46:20.800Z,0.47
2022-09-10T10:50:53.248Z,0.43
2022-09-10T10:55:04.043Z,0.47
2022-09-10T10:59:33.055Z,0.40
2022-09-10T11:03:44.189Z,0.88
2022-09-10T11:07:47.280Z,0.40
2022-09-10T11:12:08.841Z,0.40
2022-09-10T11:16:21.600Z,0.80
2022-09-10T11:20:34.915Z,0.40
2022-09-10T11:24:50.027Z,0.50
2022-09-10T11:29:04.360Z,0.43
2022-09-10T11:33:19.933Z,0.60
2022-09-10T11:37:57.720Z,0.40
2022-09-10T11:42:10.224Z,0.40
2022-09-10T11:46:21.262Z,0.40
2022-09-10T11:50:33.882Z,0.40
2022-09-10T11:54:38.947Z,0.40
2022-09-10T11:58:56.055Z,0.40
2022-09-10T12:03:22.071Z,0.50
2022-09-10T12:07:44.382Z,0.28
2022-09-10T12:11:52.125Z,0.40
2022-09-10T12:15:59.685Z,3.20
2022-09-10T12:20:05.713Z,0.50
2022-09-10T12:24:37.639Z,0.28
2022-09-10T12:28:42.749Z,0.40
2022-09-10T12:32:44.774Z,0.20
2022-09-10T12:36:49.780Z,0.40
2022-09-10T12:40:51.898Z,0.40
2022-09-10T12:44:54.104Z,0.32
2022-09-10T12:48:56.068Z,0.30
2022-09-10T12:53:16.666Z,0.47
2022-09-10T12:57:41.740Z,0.30
2022-09-10T13:01:47.545Z,0.52
2022-09-10T13:05:51.518Z,0.40
2022-09-10T13:10:01.414Z,0.25
2022-09-10T13:14:05.263Z,0.30
2022-09-10T13:18:23.669Z,0.10
2022-09-10T13:22:53.605Z,0.25
2022-09-10T13:27:21.238Z,0.20
2022-09-10T13:31:26.746Z,0.30
2022-09-10T13:36:11.314Z,0.40
2022-09-10T13:40:41.498Z,0.30
2022-09-10T13:44:49.370Z,0.50
2022-09-10T13:48:57.239Z,0.32
2022-09-10T13:53:01.137Z,0.93
2022-09-10T13:57:17.812Z,0.60
2022-09-10T14:01:19.898Z,0.40
2022-09-10T14:05:23.079Z,0.50
2022-09-10T14:09:26.062Z,0.70
2022-09-10T14:13:34.882Z,0.80
2022-09-10T14:18:03.400Z,0.60
2022-09-10T14:22:09.824Z,0.80
2022-09-10T14:26:30.280Z,1.20
2022-09-10T14:30:32.912Z,0.60
2022-09-10T14:34:38.110Z,0.60
2022-09-10T14:38:42.399Z,0.82
2022-09-10T14:42:46.036Z,0.77
2022-09-10T14:46:49.301Z,0.73
2022-09-10T14:51:01.733Z,0.60
2022-09-10T14:55:03.958Z,0.60
2022-09-10T14:59:10.547Z,0.73
2022-09-10T15:03:15.820Z,0.73
2022-09-10T15:07:17.878Z,0.80
2022-09-10T15:11:25.629Z,0.60
2022-09-10T15:15:29.708Z,0.50
2022-09-10T15:19:31.995Z,0.80
2022-09-10T15:23:34.653Z,0.60
2022-09-10T15:27:36.871Z,1.20
2022-09-10T15:31:39.299Z,0.40
2022-09-10T15:35:41.622Z,0.60
2022-09-10T15:39:43.793Z,0.40
2022-09-10T15:43:46.022Z,0.70
2022-09-10T15:47:48.039Z,1.38
2022-09-10T15:51:50.009Z,1.58
2022-09-10T15:55:53.061Z,1.77
2022-09-10T15:59:55.394Z,0.80
2022-09-10T16:04:02.648Z,0.77
2022-09-10T16:12:06.606Z,0.93
2022-09-10T16:16:11.992Z,0.68
2022-09-10T16:20:14.072Z,0.60
2022-09-10T16:24:16.063Z,1.13
2022-09-10T16:28:18.791Z,1.50
2022-09-10T16:32:20.819Z,0.80
2022-09-10T16:36:23.546Z,0.80
2022-09-10T16:40:25.718Z,1.00
2022-09-10T16:44:28.705Z,0.63
2022-09-10T16:48:34.407Z,1.60
2022-09-10T16:52:36.696Z,1.65
2022-09-10T16:56:42.022Z,0.75
2022-09-10T17:00:45.176Z,1.00
2022-09-10T17:04:47.861Z,0.80
2022-09-10T17:08:51.055Z,0.70
2022-09-10T17:12:53.332Z,0.77
2022-09-10T17:16:56.218Z,1.00
2022-09-10T17:20:58.232Z,1.10
2022-09-10T17:25:00.226Z,1.00
2022-09-10T17:29:07.985Z,0.73
2022-09-10T17:33:09.990Z,0.90
2022-09-10T17:37:11.994Z,0.82
2022-09-10T17:41:14.636Z,0.90
2022-09-10T17:45:16.770Z,0.98
2022-09-10T17:49:18.754Z,0.90
2022-09-10T17:53:20.891Z,0.90
2022-09-10T17:57:22.912Z,1.00
2022-09-10T18:01:27.879Z,0.90
2022-09-10T18:05:29.893Z,0.93
2022-09-10T18:09:31.905Z,1.02
2022-09-10T18:13:35.489Z,0.88
2022-09-10T18:17:37.991Z,1.08
2022-09-10T18:21:40.762Z,0.93
2022-09-10T18:25:47.911Z,1.05
2022-09-10T18:29:51.750Z,1.30
2022-09-10T18:33:54.516Z,1.48
2022-09-10T18:37:57.179Z,1.10
2022-09-10T18:42:03.409Z,1.00
2022-09-10T18:46:05.796Z,0.68
2022-09-10T18:50:08.280Z,1.15
2022-09-10T18:54:12.788Z,0.80
2022-09-10T18:58:14.776Z,0.80
2022-09-10T19:02:17.797Z,0.90
2022-09-10T19:06:25.418Z,1.10
2022-09-10T19:10:29.419Z,1.00
2022-09-10T19:14:32.763Z,1.05
2022-09-10T19:18:34.762Z,1.02
2022-09-10T19:22:37.660Z,1.00
2022-09-10T19:26:39.731Z,0.93
2022-09-10T19:30:41.735Z,1.08
2022-09-10T19:34:44.291Z,1.00
2022-09-10T19:38:46.957Z,0.70
2022-09-10T19:42:48.969Z,0.90
2022-09-10T19:46:51.006Z,0.85
2022-09-10T19:50:53.339Z,0.70
2022-09-10T19:54:55.321Z,0.88
2022-09-10T19:58:57.799Z,1.00
2022-09-10T20:02:59.979Z,1.02
2022-09-10T20:07:01.959Z,1.10
2022-09-10T20:11:06.226Z,1.00
2022-09-10T20:15:08.587Z,1.00
2022-09-10T20:19:13.048Z,0.90
2022-09-10T20:23:15.217Z,0.80
2022-09-10T20:27:17.312Z,1.17
2022-09-10T20:31:20.856Z,1.27
2022-09-10T20:35:22.914Z,1.10
2022-09-10T20:39:25.289Z,1.05
2022-09-10T20:43:28.254Z,1.48
2022-09-10T20:47:31.325Z,1.08
2022-09-10T20:51:38.746Z,1.20
2022-09-10T20:55:40.772Z,1.00
2022-09-10T20:59:44.046Z,1.05
2022-09-10T21:03:47.969Z,1.10
2022-09-10T21:07:50.529Z,0.95
2022-09-10T21:11:52.510Z,1.10
2022-09-10T21:15:54.555Z,1.10
2022-09-10T21:19:57.100Z,0.80
2022-09-10T21:24:01.720Z,0.90
2022-09-10T21:28:03.685Z,1.30
2022-09-10T21:32:05.966Z,1.50
2022-09-10T21:36:11.883Z,1.58
2022-09-10T21:40:14.022Z,1.90
2022-09-10T21:44:19.643Z,2.28
2022-09-10T21:48:21.757Z,2.38
2022-09-10T21:52:23.946Z,2.55
2022-09-10T21:56:27.630Z,3.13
2022-09-10T22:00:31.064Z,3.80
2022-09-10T22:04:33.047Z,3.97
2022-09-10T22:08:36.302Z,4.78
2022-09-10T22:12:38.315Z,5.10
2022-09-10T22:16:40.347Z,5.05
2022-09-10T22:20:42.336Z,6.03
2022-09-10T22:24:44.339Z,6.45
2022-09-10T22:28:47.119Z,6.93
2022-09-10T22:32:49.083Z,7.25
2022-09-10T22:36:51.081Z,8.23
2022-09-10T22:40:53.543Z,8.32
2022-09-10T22:44:56.756Z,8.10
2022-09-10T22:48:59.461Z,8.40
2022-09-10T22:53:01.452Z,8.50
2022-09-10T22:57:03.541Z,8.82
2022-09-10T23:01:12.270Z,9.13
2022-09-10T23:05:14.408Z,9.57
2022-09-10T23:09:17.800Z,10.05
2022-09-10T23:13:20.235Z,10.07
2022-09-10T23:17:22.744Z,10.18
2022-09-10T23:21:26.988Z,10.93
2022-09-10T23:25:28.997Z,10.20
2022-09-10T23:29:31.106Z,10.82
2022-09-10T23:33:33.079Z,10.88
2022-09-10T23:37:35.120Z,10.68
2022-09-10T23:41:37.152Z,11.32
2022-09-10T23:45:39.147Z,10.68
2022-09-10T23:49:41.141Z,11.43
2022-09-10T23:53:46.691Z,12.00
2022-09-10T23:57:48.796Z,12.55
